createdAt,value
2018-08-08T00:00:11.511Z,95.40
2018-08-08T00:02:40.144Z,95.50
2018-08-08T00:05:08.787Z,95.50
2018-08-08T00:07:37.388Z,95.60
2018-08-08T00:10:06.288Z,95.60
2018-08-08T00:12:34.895Z,95.80
2018-08-08T00:15:03.596Z,96.20
2018-08-08T00:17:32.187Z,95.80
2018-08-08T00:20:00.755Z,95.60
2018-08-08T00:22:29.371Z,95.30
2018-08-08T00:24:57.955Z,95.50
2018-08-08T00:27:26.574Z,95.70
2018-08-08T00:29:55.262Z,96.00
2018-08-08T00:32:24.135Z,96.00
2018-08-08T00:34:52.983Z,96.10
2018-08-08T00:37:21.739Z,95.90
2018-08-08T00:39:50.305Z,97.00
2018-08-08T00:42:18.895Z,97.50
2018-08-08T00:44:47.435Z,95.80
2018-08-08T00:47:16.279Z,96.00
2018-08-08T00:49:45.141Z,96.70
2018-08-08T00:52:14.032Z,97.00
2018-08-08T00:54:42.727Z,96.70
2018-08-08T00:57:11.583Z,96.30
2018-08-08T00:59:40.447Z,96.30
2018-08-08T01:02:09.292Z,96.70
2018-08-08T01:04:38.100Z,96.90
2018-08-08T01:07:06.951Z,97.40
2018-08-08T01:09:35.816Z,97.50
2018-08-08T01:12:04.712Z,98.00
2018-08-08T01:14:33.626Z,97.90
2018-08-08T01:17:02.441Z,98.10
2018-08-08T01:19:31.403Z,98.00
2018-08-08T01:22:00.324Z,97.80
2018-08-08T01:24:29.224Z,98.00
2018-08-08T01:26:58.104Z,97.90
2018-08-08T01:29:26.911Z,97.70
2018-08-08T01:31:55.863Z,97.40
2018-08-08T01:34:24.432Z,97.40
2018-08-08T01:36:53.040Z,97.60
2018-08-08T01:39:21.672Z,97.60
2018-08-08T01:41:50.284Z,97.80
2018-08-08T01:44:18.868Z,97.90
2018-08-08T01:46:47.491Z,97.50
2018-08-08T01:49:16.104Z,97.70
2018-08-08T01:51:44.765Z,98.00
2018-08-08T01:54:13.336Z,98.20
2018-08-08T01:56:42.032Z,98.30
2018-08-08T01:59:10.663Z,98.10
2018-08-08T02:01:39.268Z,98.30
2018-08-08T02:04:07.884Z,98.30
2018-08-08T02:06:36.499Z,98.10
2018-08-08T02:09:06.769Z,97.80
2018-08-08T02:11:35.829Z,97.50
2018-08-08T02:14:04.908Z,97.80
2018-08-08T02:16:33.819Z,97.40
2018-08-08T02:19:02.766Z,97.40
2018-08-08T02:21:31.632Z,97.30
2018-08-08T02:24:00.521Z,97.70
2018-08-08T02:26:29.338Z,98.90
2018-08-08T02:28:58.125Z,99.90
2018-08-08T02:31:26.976Z,99.90
2018-08-08T02:33:55.867Z,99.90
2018-08-08T02:36:24.688Z,99.90
2018-08-08T02:38:53.589Z,99.90
2018-08-08T02:41:22.377Z,99.90
2018-08-08T02:43:51.337Z,99.90
2018-08-08T02:46:20.272Z,99.90
2018-08-08T02:48:49.249Z,99.90
2018-08-08T02:51:18.016Z,99.90
2018-08-08T02:53:46.927Z,99.90
2018-08-08T02:56:15.715Z,99.90
2018-08-08T02:58:44.550Z,99.90
2018-08-08T03:01:13.333Z,99.90
2018-08-08T03:03:42.315Z,99.90
2018-08-08T03:06:11.058Z,99.90
2018-08-08T03:08:39.955Z,99.90
2018-08-08T03:11:09.575Z,99.90
2018-08-08T03:13:38.179Z,99.90
2018-08-08T03:16:06.771Z,99.90
2018-08-08T03:18:35.388Z,99.90
2018-08-08T03:21:04.191Z,99.90
2018-08-08T03:23:33.061Z,99.90
2018-08-08T03:26:02.584Z,99.90
2018-08-08T03:28:31.370Z,99.90
2018-08-08T03:31:00.052Z,99.90
2018-08-08T03:33:28.939Z,99.90
2018-08-08T03:35:57.752Z,99.90
2018-08-08T03:38:26.478Z,99.90
2018-08-08T03:40:55.220Z,99.90
2018-08-08T03:43:23.871Z,99.90
2018-08-08T03:45:52.488Z,99.90
2018-08-08T03:48:21.142Z,99.90
2018-08-08T03:50:49.729Z,99.90
2018-08-08T03:53:18.393Z,99.90
2018-08-08T03:55:46.971Z,99.90
2018-08-08T03:58:15.617Z,99.90
2018-08-08T04:00:44.199Z,99.90
2018-08-08T04:03:12.832Z,99.90
2018-08-08T04:05:41.447Z,99.90
2018-08-08T04:08:10.156Z,99.90
2018-08-08T04:10:39.007Z,99.90
2018-08-08T04:13:07.873Z,99.90
2018-08-08T04:15:36.648Z,99.90
2018-08-08T04:18:06.368Z,99.90
2018-08-08T04:20:35.360Z,99.90
2018-08-08T04:23:04.208Z,99.90
2018-08-08T04:25:33.012Z,99.90
2018-08-08T04:28:01.861Z,99.90
2018-08-08T04:30:30.812Z,99.90
2018-08-08T04:32:59.519Z,99.90
2018-08-08T04:35:28.363Z,99.90
2018-08-08T04:37:57.173Z,99.90
2018-08-08T04:40:26.085Z,99.90
2018-08-08T04:42:55.039Z,99.90
2018-08-08T04:45:23.893Z,99.90
2018-08-08T04:47:52.804Z,99.90
2018-08-08T04:50:21.615Z,99.90
2018-08-08T04:52:50.437Z,99.90
2018-08-08T04:55:19.267Z,99.90
2018-08-08T04:57:48.123Z,99.90
2018-08-08T05:00:17.932Z,99.90
2018-08-08T05:02:46.964Z,99.90
2018-08-08T05:05:16.109Z,99.90
2018-08-08T05:07:45.009Z,99.90
2018-08-08T05:10:13.896Z,99.90
2018-08-08T05:12:42.876Z,99.90
2018-08-08T05:15:14.440Z,99.90
2018-08-08T05:17:43.399Z,99.90
2018-08-08T05:20:13.152Z,99.90
2018-08-08T05:22:41.759Z,99.90
2018-08-08T05:25:10.384Z,99.90
2018-08-08T05:27:38.980Z,99.90
2018-08-08T05:30:19.482Z,99.90
2018-08-08T05:32:48.694Z,99.90
2018-08-08T05:35:19.120Z,99.90
2018-08-08T05:37:48.016Z,99.90
2018-08-08T05:40:20.037Z,99.90
2018-08-08T05:42:49.748Z,99.90
2018-08-08T05:45:18.405Z,99.90
2018-08-08T05:47:48.154Z,99.90
2018-08-08T05:50:16.795Z,99.90
2018-08-08T05:52:45.400Z,99.90
2018-08-08T05:55:15.425Z,99.90
2018-08-08T05:57:44.884Z,99.90
2018-08-08T06:00:20.728Z,99.90
2018-08-08T06:02:49.628Z,99.90
2018-08-08T06:05:18.459Z,99.90
2018-08-08T06:07:47.229Z,99.90
2018-08-08T06:10:16.095Z,99.90
2018-08-08T06:12:45.021Z,99.90
2018-08-08T06:15:14.740Z,99.90
2018-08-08T06:17:43.452Z,99.90
2018-08-08T06:20:14.660Z,99.90
2018-08-08T06:22:44.387Z,99.90
2018-08-08T06:25:13.170Z,99.90
2018-08-08T06:27:42.465Z,99.90
2018-08-08T06:30:17.292Z,99.90
2018-08-08T06:32:46.199Z,99.90
2018-08-08T06:35:16.192Z,99.90
2018-08-08T06:37:44.896Z,99.90
2018-08-08T06:40:14.464Z,99.90
2018-08-08T06:42:43.832Z,99.90
2018-08-08T06:45:14.065Z,99.90
2018-08-08T06:47:43.056Z,99.90
2018-08-08T06:50:13.238Z,99.90
2018-08-08T06:52:42.035Z,99.90
2018-08-08T06:55:12.590Z,99.90
2018-08-08T06:57:41.645Z,99.90
2018-08-08T07:00:16.236Z,99.90
2018-08-08T07:02:45.369Z,99.90
2018-08-08T07:05:15.161Z,99.90
2018-08-08T07:07:43.813Z,99.90
2018-08-08T07:10:12.380Z,99.90
2018-08-08T07:12:40.986Z,99.90
2018-08-08T07:15:11.947Z,99.90
2018-08-08T07:17:40.729Z,99.90
2018-08-08T07:20:10.778Z,99.90
2018-08-08T07:22:39.452Z,99.90
2018-08-08T07:25:10.271Z,99.90
2018-08-08T07:27:38.981Z,99.90
2018-08-08T07:30:10.773Z,99.90
2018-08-08T07:32:39.741Z,99.90
2018-08-08T07:35:09.112Z,99.90
2018-08-08T07:37:37.949Z,99.90
2018-08-08T07:40:09.582Z,99.90
2018-08-08T07:42:38.688Z,99.90
2018-08-08T07:45:09.270Z,99.90
2018-08-08T07:47:37.897Z,99.90
2018-08-08T07:50:07.703Z,99.90
2018-08-08T07:52:36.350Z,99.90
2018-08-08T07:55:05.816Z,99.90
2018-08-08T07:57:34.721Z,99.90
2018-08-08T08:00:04.368Z,99.90
2018-08-08T08:02:32.961Z,99.90
2018-08-08T08:05:01.644Z,99.90
2018-08-08T08:07:30.236Z,99.90
2018-08-08T08:09:58.923Z,99.90
2018-08-08T08:12:27.507Z,99.90
2018-08-08T08:14:56.060Z,99.90
2018-08-08T08:17:24.691Z,99.90
2018-08-08T08:19:53.215Z,99.90
2018-08-08T08:22:28.283Z,99.90
2018-08-08T08:24:57.038Z,99.90
2018-08-08T08:27:25.981Z,99.90
2018-08-08T08:29:54.614Z,99.90
2018-08-08T08:32:23.132Z,99.90
2018-08-08T08:34:51.715Z,99.90
2018-08-08T08:37:20.408Z,99.90
2018-08-08T08:39:48.990Z,99.90
2018-08-08T08:42:17.588Z,99.90
2018-08-08T08:44:46.293Z,99.90
2018-08-08T08:47:14.863Z,99.90
2018-08-08T08:49:43.433Z,99.90
2018-08-08T08:52:12.017Z,99.90
2018-08-08T08:54:40.588Z,99.90
2018-08-08T08:57:09.138Z,99.90
2018-08-08T08:59:37.700Z,99.90
2018-08-08T09:02:06.305Z,99.90
2018-08-08T09:04:34.915Z,99.90
2018-08-08T09:07:03.458Z,99.90
2018-08-08T09:09:32.076Z,99.90
2018-08-08T09:12:00.664Z,99.90
2018-08-08T09:14:29.232Z,99.90
2018-08-08T09:16:57.845Z,99.90
2018-08-08T09:19:26.447Z,99.90
2018-08-08T09:21:55.050Z,99.90
2018-08-08T09:24:23.676Z,99.90
2018-08-08T09:26:52.245Z,99.90
2018-08-08T09:29:20.875Z,99.90
2018-08-08T09:31:49.416Z,99.90
2018-08-08T09:34:18.203Z,99.90
2018-08-08T09:36:46.989Z,99.90
2018-08-08T09:39:15.890Z,99.90
2018-08-08T09:41:44.595Z,99.90
2018-08-08T09:44:13.389Z,99.90
2018-08-08T09:46:42.247Z,99.90
2018-08-08T09:49:11.016Z,99.90
2018-08-08T09:51:39.829Z,99.90
2018-08-08T09:54:08.719Z,99.90
2018-08-08T09:56:37.608Z,99.90
2018-08-08T09:59:14.534Z,99.90
2018-08-08T10:01:49.127Z,99.90
2018-08-08T10:04:23.169Z,99.90
2018-08-08T10:06:51.981Z,99.90
2018-08-08T10:09:20.604Z,99.90
2018-08-08T10:11:49.448Z,99.90
2018-08-08T10:14:17.971Z,99.90
2018-08-08T10:16:46.554Z,99.90
2018-08-08T10:19:15.401Z,99.90
2018-08-08T10:21:44.364Z,99.90
2018-08-08T10:24:13.434Z,99.90
2018-08-08T10:26:42.190Z,99.90
2018-08-08T10:29:10.755Z,99.90
2018-08-08T10:31:39.385Z,99.90
2018-08-08T10:34:07.952Z,99.90
2018-08-08T10:36:36.585Z,99.90
2018-08-08T10:39:08.196Z,99.90
2018-08-08T10:41:36.865Z,99.90
2018-08-08T10:44:05.997Z,99.90
2018-08-08T10:46:34.645Z,99.60
2018-08-08T10:49:03.196Z,99.70
2018-08-08T10:51:31.928Z,99.90
2018-08-08T10:54:00.475Z,99.80
2018-08-08T10:56:29.687Z,99.40
2018-08-08T10:58:58.412Z,98.90
2018-08-08T11:01:27.436Z,98.90
2018-08-08T11:03:56.074Z,99.00
2018-08-08T11:06:25.668Z,98.90
2018-08-08T11:08:54.498Z,98.70
2018-08-08T11:11:23.354Z,98.80
2018-08-08T11:13:52.108Z,98.60
2018-08-08T11:16:21.257Z,98.80
2018-08-08T11:18:50.056Z,98.40
2018-08-08T11:21:18.912Z,98.60
2018-08-08T11:23:47.735Z,98.70
2018-08-08T11:26:16.320Z,98.90
2018-08-08T11:28:44.924Z,97.90
2018-08-08T11:31:13.519Z,97.80
2018-08-08T11:33:42.056Z,97.30
2018-08-08T11:36:10.661Z,97.50
2018-08-08T11:38:39.221Z,97.20
2018-08-08T11:41:07.804Z,97.30
2018-08-08T11:43:36.406Z,97.10
2018-08-08T11:46:05.125Z,97.00
2018-08-08T11:48:33.730Z,96.30
2018-08-08T11:51:02.311Z,96.60
2018-08-08T11:53:30.952Z,96.30
2018-08-08T11:55:59.744Z,95.60
2018-08-08T11:58:28.382Z,95.60
2018-08-08T12:00:56.980Z,95.80
2018-08-08T12:03:25.574Z,96.00
2018-08-08T12:05:54.127Z,95.20
2018-08-08T12:08:22.696Z,94.70
2018-08-08T12:10:51.206Z,94.90
2018-08-08T12:13:19.812Z,95.00
2018-08-08T12:15:48.381Z,95.20
2018-08-08T12:18:16.957Z,95.60
2018-08-08T12:20:45.519Z,95.40
2018-08-08T12:23:14.106Z,94.70
2018-08-08T12:25:42.718Z,95.00
2018-08-08T12:28:11.289Z,94.90
2018-08-08T12:30:39.903Z,94.90
2018-08-08T12:33:08.503Z,94.80
2018-08-08T12:35:37.094Z,93.80
2018-08-08T12:38:05.727Z,93.90
2018-08-08T12:40:34.291Z,93.80
2018-08-08T12:43:02.908Z,93.10
2018-08-08T12:45:31.444Z,93.30
2018-08-08T12:48:00.035Z,93.20
2018-08-08T12:50:28.698Z,93.30
2018-08-08T12:52:57.329Z,93.50
2018-08-08T12:55:25.907Z,92.60
2018-08-08T12:57:54.512Z,92.30
2018-08-08T13:00:23.072Z,92.60
2018-08-08T13:02:51.654Z,92.00
2018-08-08T13:05:20.259Z,91.70
2018-08-08T13:07:49.183Z,91.70
2018-08-08T13:10:17.969Z,91.40
2018-08-08T13:12:46.885Z,91.50
2018-08-08T13:15:15.688Z,91.80
2018-08-08T13:17:44.629Z,91.80
2018-08-08T13:20:13.384Z,92.00
2018-08-08T13:22:42.285Z,92.30
2018-08-08T13:25:11.121Z,92.60
2018-08-08T13:27:40.076Z,91.90
2018-08-08T13:30:08.852Z,92.10
2018-08-08T13:32:37.761Z,91.70
2018-08-08T13:35:07.034Z,91.20
2018-08-08T13:37:35.837Z,91.40
2018-08-08T13:40:05.613Z,91.10
2018-08-08T13:42:34.470Z,91.20
2018-08-08T13:45:03.249Z,91.10
2018-08-08T13:47:32.074Z,92.30
2018-08-08T13:50:00.964Z,92.00
2018-08-08T13:52:29.731Z,91.90
2018-08-08T13:54:58.696Z,91.80
2018-08-08T13:57:27.667Z,91.50
2018-08-08T13:59:56.529Z,91.30
2018-08-08T14:02:25.349Z,91.50
2018-08-08T14:04:54.198Z,92.00
2018-08-08T14:07:23.137Z,90.70
2018-08-08T14:09:52.024Z,90.80
2018-08-08T14:12:20.853Z,90.60
2018-08-08T14:14:49.765Z,90.50
2018-08-08T14:17:18.628Z,89.80
2018-08-08T14:19:47.473Z,89.50
2018-08-08T14:22:16.195Z,88.80
2018-08-08T14:24:44.922Z,88.20
2018-08-08T14:27:13.884Z,89.10
2018-08-08T14:29:42.792Z,88.80
2018-08-08T14:32:11.667Z,88.80
2018-08-08T14:34:40.523Z,90.00
2018-08-08T14:37:09.449Z,89.10
2018-08-08T14:39:38.411Z,90.00
2018-08-08T14:42:07.284Z,89.70
2018-08-08T14:44:36.086Z,87.70
2018-08-08T14:47:05.016Z,88.20
2018-08-08T14:49:33.952Z,86.40
2018-08-08T14:52:02.851Z,86.60
2018-08-08T14:54:31.661Z,87.90
2018-08-08T14:57:00.476Z,88.10
2018-08-08T14:59:29.420Z,88.70
2018-08-08T15:01:58.213Z,88.30
2018-08-08T15:04:27.043Z,84.30
2018-08-08T15:06:56.009Z,82.60
2018-08-08T15:09:24.828Z,82.80
2018-08-08T15:11:53.686Z,84.80
2018-08-08T15:14:22.529Z,84.00
2018-08-08T15:16:51.408Z,83.20
2018-08-08T15:19:20.249Z,82.70
2018-08-08T15:21:48.815Z,83.20
2018-08-08T15:24:17.418Z,82.80
2018-08-08T15:26:46.013Z,82.40
2018-08-08T15:29:14.659Z,79.60
2018-08-08T15:31:43.275Z,77.60
2018-08-08T15:34:11.930Z,77.80
2018-08-08T15:36:40.776Z,78.20
2018-08-08T15:39:09.852Z,79.10
2018-08-08T15:41:38.533Z,75.40
2018-08-08T15:44:07.159Z,74.00
2018-08-08T15:46:35.809Z,74.10
2018-08-08T15:49:04.450Z,74.70
2018-08-08T15:51:33.152Z,74.60
2018-08-08T15:54:01.732Z,76.80
2018-08-08T15:56:30.561Z,77.70
2018-08-08T15:58:59.462Z,78.40
2018-08-08T16:01:28.472Z,76.60
2018-08-08T16:03:57.392Z,76.80
2018-08-08T16:06:26.191Z,74.80
2018-08-08T16:08:54.737Z,73.50
2018-08-08T16:11:23.323Z,72.50
2018-08-08T16:13:51.946Z,72.50
2018-08-08T16:16:20.548Z,72.40
2018-08-08T16:18:49.110Z,72.90
2018-08-08T16:21:17.836Z,73.40
2018-08-08T16:23:46.396Z,75.30
2018-08-08T16:26:14.956Z,74.90
2018-08-08T16:28:43.597Z,75.90
2018-08-08T16:31:12.199Z,77.10
2018-08-08T16:33:40.764Z,77.40
2018-08-08T16:36:09.352Z,80.10
2018-08-08T16:38:37.916Z,78.80
2018-08-08T16:41:07.040Z,78.00
2018-08-08T16:43:35.632Z,78.50
2018-08-08T16:46:04.315Z,76.20
2018-08-08T16:48:32.898Z,75.90
2018-08-08T16:51:01.524Z,77.00
2018-08-08T16:53:30.189Z,78.30
2018-08-08T16:55:58.900Z,79.90
2018-08-08T16:58:27.436Z,82.10
2018-08-08T17:00:56.020Z,83.90
2018-08-08T17:03:24.638Z,84.80
2018-08-08T17:05:53.195Z,78.00
2018-08-08T17:08:21.798Z,78.90
2018-08-08T17:10:50.412Z,81.40
2018-08-08T17:13:18.988Z,83.40
2018-08-08T17:15:47.605Z,83.50
2018-08-08T17:18:16.175Z,79.40
2018-08-08T17:20:44.734Z,82.30
2018-08-08T17:23:13.397Z,80.90
2018-08-08T17:25:41.948Z,83.40
2018-08-08T17:28:10.546Z,83.70
2018-08-08T17:30:39.384Z,84.40
2018-08-08T17:33:08.379Z,84.90
2018-08-08T17:35:37.298Z,86.30
2018-08-08T17:38:06.250Z,84.90
2018-08-08T17:40:35.183Z,88.60
2018-08-08T17:43:04.220Z,84.90
2018-08-08T17:45:33.072Z,86.80
2018-08-08T17:48:01.900Z,87.80
2018-08-08T17:50:30.800Z,89.10
2018-08-08T17:52:59.724Z,90.10
2018-08-08T17:55:28.507Z,90.40
2018-08-08T17:57:57.366Z,90.50
2018-08-08T18:00:26.252Z,90.00
2018-08-08T18:02:55.272Z,87.20
2018-08-08T18:05:24.125Z,90.40
2018-08-08T18:07:53.099Z,89.20
2018-08-08T18:10:22.021Z,88.80
2018-08-08T18:12:50.759Z,87.50
2018-08-08T18:15:19.546Z,89.70
2018-08-08T18:17:48.151Z,91.00
2018-08-08T18:20:16.716Z,91.60
2018-08-08T18:22:45.347Z,91.50
2018-08-08T18:25:13.980Z,91.80
2018-08-08T18:27:42.638Z,90.70
2018-08-08T18:30:11.551Z,91.70
2018-08-08T18:32:40.197Z,91.60
2018-08-08T18:35:08.842Z,92.10
2018-08-08T18:37:37.520Z,92.00
2018-08-08T18:40:06.129Z,93.40
2018-08-08T18:42:34.738Z,93.80
2018-08-08T18:45:03.388Z,94.40
2018-08-08T18:47:32.005Z,95.10
2018-08-08T18:50:00.597Z,95.60
2018-08-08T18:52:29.970Z,96.40
2018-08-08T18:54:58.511Z,96.90
2018-08-08T18:57:27.119Z,97.20
2018-08-08T18:59:55.703Z,97.30
2018-08-08T19:02:24.408Z,97.50
2018-08-08T19:04:52.976Z,97.80
2018-08-08T19:07:21.551Z,98.00
2018-08-08T19:09:50.166Z,98.30
2018-08-08T19:12:18.722Z,98.30
2018-08-08T19:14:47.291Z,98.30
2018-08-08T19:17:15.851Z,98.90
2018-08-08T19:19:44.689Z,99.30
2018-08-08T19:22:13.239Z,99.60
2018-08-08T19:24:41.816Z,99.90
2018-08-08T19:27:10.604Z,99.90
2018-08-08T19:29:39.408Z,99.90
2018-08-08T19:32:08.203Z,99.90
2018-08-08T19:34:36.918Z,99.90
2018-08-08T19:37:06.129Z,99.90
2018-08-08T19:39:34.729Z,99.90
2018-08-08T19:42:03.310Z,99.90
2018-08-08T19:44:31.956Z,99.90
2018-08-08T19:47:00.551Z,99.90
2018-08-08T19:49:29.162Z,99.90
2018-08-08T19:51:57.716Z,99.90
2018-08-08T19:54:26.368Z,99.90
2018-08-08T19:56:54.924Z,99.90
2018-08-08T19:59:23.519Z,99.90
2018-08-08T20:01:52.143Z,99.90
2018-08-08T20:04:20.716Z,99.90
2018-08-08T20:06:49.291Z,99.90
2018-08-08T20:09:17.878Z,99.90
2018-08-08T20:11:46.431Z,99.90
2018-08-08T20:14:14.994Z,99.90
2018-08-08T20:16:43.529Z,99.90
2018-08-08T20:19:12.232Z,99.90
2018-08-08T20:21:40.784Z,99.90
2018-08-08T20:24:09.575Z,99.90
2018-08-08T20:26:38.116Z,99.90
2018-08-08T20:29:06.776Z,99.90
2018-08-08T20:31:35.344Z,99.90
2018-08-08T20:34:03.945Z,99.90
2018-08-08T20:36:32.523Z,99.90
2018-08-08T20:39:01.119Z,99.90
2018-08-08T20:41:29.710Z,99.90
2018-08-08T20:43:58.345Z,99.90
2018-08-08T20:46:26.921Z,99.90
2018-08-08T20:48:55.533Z,99.90
2018-08-08T20:51:24.097Z,99.90
2018-08-08T20:53:52.690Z,99.90
2018-08-08T20:56:21.340Z,99.90
2018-08-08T20:58:50.176Z,99.90
2018-08-08T21:01:19.047Z,99.90
2018-08-08T21:03:47.881Z,99.90
2018-08-08T21:06:16.820Z,99.90
2018-08-08T21:08:45.619Z,99.90
2018-08-08T21:11:14.432Z,99.90
2018-08-08T21:13:43.307Z,99.90
2018-08-08T21:16:12.245Z,99.90
2018-08-08T21:18:41.126Z,99.90
2018-08-08T21:21:10.273Z,99.90
2018-08-08T21:23:38.836Z,99.90
2018-08-08T21:26:07.421Z,99.90
2018-08-08T21:28:36.076Z,99.90
2018-08-08T21:31:04.668Z,99.90
2018-08-08T21:33:33.352Z,99.90
2018-08-08T21:36:02.255Z,99.90
2018-08-08T21:38:31.060Z,99.90
2018-08-08T21:40:59.903Z,99.90
2018-08-08T21:43:28.796Z,99.90
2018-08-08T21:45:57.680Z,99.90
2018-08-08T21:48:26.301Z,99.90
2018-08-08T21:50:54.912Z,99.90
2018-08-08T21:53:34.713Z,99.90
2018-08-08T21:57:15.212Z,99.90
2018-08-08T21:59:54.992Z,99.90
2018-08-08T22:02:35.422Z,99.90
2018-08-08T22:05:15.485Z,99.90
2018-08-08T22:08:55.222Z,99.90
2018-08-08T22:11:35.065Z,99.90
2018-08-08T22:14:14.971Z,99.90
2018-08-08T22:16:54.725Z,99.90
2018-08-08T22:19:34.656Z,99.90
2018-08-08T22:22:03.327Z,99.90
2018-08-08T22:24:34.687Z,99.90
2018-08-08T22:27:03.324Z,99.90
2018-08-08T22:29:31.908Z,99.90
2018-08-08T22:32:00.526Z,99.90
2018-08-08T22:34:29.090Z,99.90
2018-08-08T22:36:57.661Z,99.90
2018-08-08T22:39:26.274Z,99.90
2018-08-08T22:41:54.888Z,99.90
2018-08-08T22:44:23.424Z,99.90
2018-08-08T22:46:52.016Z,99.90
2018-08-08T22:49:20.581Z,99.90
2018-08-08T22:51:49.187Z,99.90
2018-08-08T22:54:17.715Z,99.90
2018-08-08T22:56:46.283Z,99.90
2018-08-08T22:59:14.810Z,99.90
2018-08-08T23:01:43.372Z,99.90
2018-08-08T23:04:11.980Z,99.90
2018-08-08T23:06:40.569Z,99.90
2018-08-08T23:09:10.076Z,99.90
2018-08-08T23:11:38.700Z,99.90
2018-08-08T23:14:07.724Z,99.90
2018-08-08T23:16:36.433Z,99.90
2018-08-08T23:19:05.021Z,99.90
2018-08-08T23:21:33.621Z,99.90
2018-08-08T23:24:02.208Z,99.90
2018-08-08T23:26:30.792Z,99.90
2018-08-08T23:28:59.380Z,99.90
2018-08-08T23:31:28.033Z,99.90
2018-08-08T23:33:56.577Z,99.90
2018-08-08T23:36:25.115Z,99.90
2018-08-08T23:38:53.692Z,99.90
2018-08-08T23:41:22.241Z,99.90
2018-08-08T23:43:50.856Z,99.90
2018-08-08T23:46:19.375Z,99.90
2018-08-08T23:48:47.966Z,99.90
2018-08-08T23:51:16.531Z,99.90
2018-08-08T23:53:45.111Z,99.90
2018-08-08T23:56:13.649Z,99.90
2018-08-08T23:58:42.218Z,99.90
